الصفحة الرئيسية
METAR-TAF:

METAR-TAF

مطار :

بريدج تاون, بربادوس

دائرة عرض: 13-04N, خط طول: 059-29W, ارتفاع: 50 متر

مراقبة الطقس الحالي

تاريخ ووقت الإصدار 20 دقيقة قبل الساعة 15:00UTC
ريح 19 عقدة من الشرق
درجة الحرارة 29°درجة مئوية
الرطوبة 70%
ضغط 1015 hPa
الرؤية 10 كم أو أكثر
غيوم متفرقة على ارتفاع 1800 قدم

METAR: TBPB 251500Z 08019KT 9999 SCT018 29/23 Q1015 NOSIG

زمن: 11:20 (15:20 UTC)

توقعات

تاريخ ووقت الإصدار 4ساعات و 20 دقيقة قبل الساعة 11:00UTC
التوقعات صالحة من25 الساعة 12 UTC إلى 26 الساعة 12 UTC
ريح 17 عقدة من الشرق
الرؤية 10 كم أو أكثر
غيوم متفرقة على ارتفاع 1800 قدم

TAF: TBPB 251100Z 2512/2612 08017KT 9999 SCT018

أرصاد الطقس والتوقعات من أكثر من 4000 مطار (تقارير الطقس للمطار METAR والتنبؤ بالطقس بالمطارTAF).

المحطات المتاحة هي النقط الصفراء والحمراء على الخريطة.

حرك المؤشر فوق النقطة لمعرفة اسم المحطة.

ثم انقر لمعرفة أرصاد وتوقعات الطقس.

لتغيير الخارطة: اضغط على الأزرار الخضراء مع رمز الصليب الأسود للتكبير. على الزر الأخضر مع شرطة للتصغير، أو على الأسهم الخضراء للخرائط المجاورة.


METAR-TAF: